Main page
METAR-TAF:

METAR-TAF

Airports :

Solenzara Air Base

Solenzara, France

latitude: 41-55N, longitude: 009-24E, elevation: 8 m

Current weather observation

The report was made 28 minutes ago, at 14:00 UTC
Wind 3 kt from variable directions
Temperature 19°C
Humidity 78%
Pressure 1025 hPa
Visibility 10 km or more
no clouds below 1500 m and no cumulonimbus

METAR: LFKS 141400Z AUTO VRB03KT CAVOK 19/15 Q1025

Time: 15:28 (14:28 UTC)

Forecast

The report was made 6 hours and 28 minutes ago, at 08:00 UTC
Forecast valid from 14 at 09 UTC to 15 at 09 UTC
Wind 5 kt from the West
Visibility 10 km or more
Scattered clouds at a height of 4000 ft
Temporary
from 14 at 14 UTC to 14 at 18 UTC
Scattered clouds at a height of 2500 ft

TAF: LFKS 140800Z 1409/1509 28005KT 9999 SCT040 TEMPO 1414/1418 SCT025

Weather observations and forecasts of more than 4000 airports (METAR and TAF reports).

The available stations are represented by yellow and red dots on the map.

Hover mouse over dot to see the name of the station.

Then click to see weather observations and forecasts.

To change the map : click on the green buttons with a black cross to zoom in, on the green button with a dash to zoom out, or on the green arrows for adjacent maps.


METAR-TAF: